sensor_id;sensor_type;location;lat;lon;timestamp;pressure;altitude;pressure_sealevel;temperature;humidity
35151;BME280;55720;51.972;4.624;2023-03-16T00:00:12;101738.97;;;4.76;100.00
35151;BME280;55720;51.972;4.624;2023-03-16T00:02:39;101734.06;;;4.73;100.00
35151;BME280;55720;51.972;4.624;2023-03-16T00:05:06;101727.00;;;4.77;100.00
35151;BME280;55720;51.972;4.624;2023-03-16T00:07:32;101724.56;;;4.81;100.00
35151;BME280;55720;51.972;4.624;2023-03-16T00:09:58;101717.22;;;4.76;100.00
35151;BME280;55720;51.972;4.624;2023-03-16T00:12:23;101721.81;;;4.76;100.00
35151;BME280;55720;51.972;4.624;2023-03-16T00:14:50;101711.75;;;4.76;100.00
35151;BME280;55720;51.972;4.624;2023-03-16T00:17:17;101716.66;;;4.79;100.00
35151;BME280;55720;51.972;4.624;2023-03-16T00:19:45;101706.59;;;4.80;100.00
35151;BME280;55720;51.972;4.624;2023-03-16T00:22:11;101708.50;;;4.79;100.00
35151;BME280;55720;51.972;4.624;2023-03-16T00:24:39;101702.78;;;4.81;100.00
35151;BME280;55720;51.972;4.624;2023-03-16T00:27:08;101703.59;;;4.76;100.00
35151;BME280;55720;51.972;4.624;2023-03-16T00:29:42;101693.00;;;4.80;100.00
35151;BME280;55720;51.972;4.624;2023-03-16T00:32:13;101688.38;;;4.80;100.00
35151;BME280;55720;51.972;4.624;2023-03-16T00:34:38;101678.00;;;4.82;100.00
35151;BME280;55720;51.972;4.624;2023-03-16T00:37:04;101664.69;;;4.86;100.00
35151;BME280;55720;51.972;4.624;2023-03-16T00:39:30;101666.84;;;4.89;100.00
35151;BME280;55720;51.972;4.624;2023-03-16T00:41:59;101665.50;;;4.86;100.00
35151;BME280;55720;51.972;4.624;2023-03-16T00:44:25;101655.16;;;4.88;100.00
35151;BME280;55720;51.972;4.624;2023-03-16T00:46:50;101653.25;;;4.89;100.00
35151;BME280;55720;51.972;4.624;2023-03-16T00:49:15;101636.34;;;4.92;100.00
35151;BME280;55720;51.972;4.624;2023-03-16T00:51:41;101620.31;;;4.90;100.00
35151;BME280;55720;51.972;4.624;2023-03-16T00:54:10;101607.28;;;4.87;100.00
35151;BME280;55720;51.972;4.624;2023-03-16T00:56:35;101601.28;;;4.85;100.00
35151;BME280;55720;51.972;4.624;2023-03-16T00:59:00;101589.31;;;4.86;100.00
35151;BME280;55720;51.972;4.624;2023-03-16T01:01:26;101557.47;;;4.87;100.00
35151;BME280;55720;51.972;4.624;2023-03-16T01:03:51;101547.41;;;4.87;100.00
35151;BME280;55720;51.972;4.624;2023-03-16T01:06:18;101512.56;;;4.89;100.00
35151;BME280;55720;51.972;4.624;2023-03-16T01:08:45;101487.25;;;4.89;100.00
35151;BME280;55720;51.972;4.624;2023-03-16T01:11:13;101467.13;;;4.85;100.00
35151;BME280;55720;51.972;4.624;2023-03-16T01:13:41;101456.25;;;4.90;100.00
35151;BME280;55720;51.972;4.624;2023-03-16T01:16:06;101424.13;;;4.92;100.00
35151;BME280;55720;51.972;4.624;2023-03-16T01:18:32;101411.06;;;4.94;100.00
35151;BME280;55720;51.972;4.624;2023-03-16T01:21:00;101386.53;;;4.99;100.00
35151;BME280;55720;51.972;4.624;2023-03-16T01:23:26;101390.06;;;5.00;100.00
35151;BME280;55720;51.972;4.624;2023-03-16T01:25:54;101362.00;;;5.04;100.00
35151;BME280;55720;51.972;4.624;2023-03-16T01:28:23;101355.47;;;5.05;100.00
35151;BME280;55720;51.972;4.624;2023-03-16T01:30:50;101341.88;;;5.00;100.00
35151;BME280;55720;51.972;4.624;2023-03-16T01:33:27;101335.94;;;4.98;100.00
35151;BME280;55720;51.972;4.624;2023-03-16T01:35:57;101343.78;;;5.00;100.00
35151;BME280;55720;51.972;4.624;2023-03-16T01:38:24;101333.16;;;5.03;100.00
35151;BME280;55720;51.972;4.624;2023-03-16T01:40:51;101322.75;;;5.10;100.00
35151;BME280;55720;51.972;4.624;2023-03-16T01:43:18;101314.59;;;5.10;100.00
35151;BME280;55720;51.972;4.624;2023-03-16T01:48:21;101293.94;;;5.09;100.00
35151;BME280;55720;51.972;4.624;2023-03-16T01:50:49;101286.28;;;5.11;100.00
35151;BME280;55720;51.972;4.624;2023-03-16T01:53:17;101287.63;;;5.14;100.00
35151;BME280;55720;51.972;4.624;2023-03-16T01:55:43;101285.72;;;5.14;100.00
35151;BME280;55720;51.972;4.624;2023-03-16T01:58:09;101271.25;;;5.19;100.00
35151;BME280;55720;51.972;4.624;2023-03-16T02:00:35;101268.00;;;5.17;100.00
35151;BME280;55720;51.972;4.624;2023-03-16T02:03:12;101256.78;;;5.23;100.00
35151;BME280;55720;51.972;4.624;2023-03-16T02:05:43;101255.41;;;5.26;100.00
35151;BME280;55720;51.972;4.624;2023-03-16T02:08:10;101245.59;;;5.25;100.00
35151;BME280;55720;51.972;4.624;2023-03-16T02:10:37;101244.84;;;5.19;100.00
35151;BME280;55720;51.972;4.624;2023-03-16T02:13:03;101229.59;;;5.18;100.00
35151;BME280;55720;51.972;4.624;2023-03-16T02:15:29;101223.09;;;5.14;100.00
35151;BME280;55720;51.972;4.624;2023-03-16T02:17:55;101219.91;;;5.07;100.00
35151;BME280;55720;51.972;4.624;2023-03-16T02:23:11;101188.88;;;5.08;100.00
35151;BME280;55720;51.972;4.624;2023-03-16T02:28:36;101162.81;;;5.02;100.00
35151;BME280;55720;51.972;4.624;2023-03-16T02:31:03;101153.53;;;5.03;100.00
35151;BME280;55720;51.972;4.624;2023-03-16T02:33:31;101131.53;;;5.00;100.00
35151;BME280;55720;51.972;4.624;2023-03-16T02:35:56;101127.97;;;5.04;100.00
35151;BME280;55720;51.972;4.624;2023-03-16T02:38:22;101120.88;;;5.03;100.00
35151;BME280;55720;51.972;4.624;2023-03-16T02:40:59;101112.22;;;5.01;100.00
35151;BME280;55720;51.972;4.624;2023-03-16T02:43:32;101104.00;;;5.06;100.00
35151;BME280;55720;51.972;4.624;2023-03-16T02:46:00;101097.16;;;5.09;100.00
35151;BME280;55720;51.972;4.624;2023-03-16T02:51:20;101084.38;;;5.09;100.00
35151;BME280;55720;51.972;4.624;2023-03-16T02:53:45;101079.16;;;5.13;100.00
35151;BME280;55720;51.972;4.624;2023-03-16T02:56:10;101071.00;;;5.13;100.00
35151;BME280;55720;51.972;4.624;2023-03-16T02:58:36;101068.28;;;5.13;100.00
35151;BME280;55720;51.972;4.624;2023-03-16T03:01:02;101057.97;;;5.10;100.00
35151;BME280;55720;51.972;4.624;2023-03-16T03:03:28;101051.13;;;5.12;100.00
35151;BME280;55720;51.972;4.624;2023-03-16T03:05:53;101038.09;;;5.09;100.00
35151;BME280;55720;51.972;4.624;2023-03-16T03:08:18;101024.50;;;5.09;100.00
35151;BME280;55720;51.972;4.624;2023-03-16T03:10:48;101019.34;;;5.08;100.00
35151;BME280;55720;51.972;4.624;2023-03-16T03:13:13;101013.66;;;5.04;100.00
35151;BME280;55720;51.972;4.624;2023-03-16T03:15:39;101001.16;;;5.03;100.00
35151;BME280;55720;51.972;4.624;2023-03-16T03:18:05;100990.56;;;5.02;100.00
35151;BME280;55720;51.972;4.624;2023-03-16T03:20:30;100976.16;;;5.01;100.00
35151;BME280;55720;51.972;4.624;2023-03-16T03:22:55;100974.53;;;5.00;100.00
35151;BME280;55720;51.972;4.624;2023-03-16T03:25:21;100952.75;;;5.00;100.00
35151;BME280;55720;51.972;4.624;2023-03-16T03:27:49;100944.09;;;4.98;100.00
35151;BME280;55720;51.972;4.624;2023-03-16T03:30:17;100941.06;;;5.00;100.00
35151;BME280;55720;51.972;4.624;2023-03-16T03:32:43;100935.69;;;4.94;100.00
35151;BME280;55720;51.972;4.624;2023-03-16T03:35:10;100936.44;;;5.00;100.00
35151;BME280;55720;51.972;4.624;2023-03-16T03:37:38;100932.34;;;5.03;100.00
35151;BME280;55720;51.972;4.624;2023-03-16T03:40:05;100928.00;;;5.02;100.00
35151;BME280;55720;51.972;4.624;2023-03-16T03:42:31;100927.69;;;5.03;100.00
35151;BME280;55720;51.972;4.624;2023-03-16T03:44:56;100929.84;;;5.06;100.00
35151;BME280;55720;51.972;4.624;2023-03-16T03:47:21;100938.00;;;5.06;100.00
35151;BME280;55720;51.972;4.624;2023-03-16T03:49:47;100930.13;;;5.05;100.00
35151;BME280;55720;51.972;4.624;2023-03-16T03:52:12;100931.44;;;5.07;100.00
35151;BME280;55720;51.972;4.624;2023-03-16T03:54:38;100924.09;;;5.08;100.00
35151;BME280;55720;51.972;4.624;2023-03-16T03:57:03;100920.75;;;5.11;100.00
35151;BME280;55720;51.972;4.624;2023-03-16T03:59:29;100916.94;;;5.12;100.00
35151;BME280;55720;51.972;4.624;2023-03-16T04:01:55;100928.44;;;5.09;100.00
35151;BME280;55720;51.972;4.624;2023-03-16T04:04:21;100921.09;;;5.09;100.00
35151;BME280;55720;51.972;4.624;2023-03-16T04:06:46;100922.69;;;5.10;100.00
35151;BME280;55720;51.972;4.624;2023-03-16T04:09:12;100932.19;;;5.13;100.00
35151;BME280;55720;51.972;4.624;2023-03-16T04:11:38;100934.31;;;5.16;100.00
35151;BME280;55720;51.972;4.624;2023-03-16T04:14:03;100931.88;;;5.14;100.00
35151;BME280;55720;51.972;4.624;2023-03-16T04:16:29;100930.28;;;5.13;100.00
35151;BME280;55720;51.972;4.624;2023-03-16T04:18:55;100922.13;;;5.13;100.00
35151;BME280;55720;51.972;4.624;2023-03-16T04:21:22;100917.75;;;5.12;100.00
35151;BME280;55720;51.972;4.624;2023-03-16T04:23:48;100911.78;;;5.10;100.00
35151;BME280;55720;51.972;4.624;2023-03-16T04:26:14;100907.38;;;5.14;100.00
35151;BME280;55720;51.972;4.624;2023-03-16T04:28:40;100909.06;;;5.10;100.00
35151;BME280;55720;51.972;4.624;2023-03-16T04:31:07;100896.00;;;5.12;100.00
35151;BME280;55720;51.972;4.624;2023-03-16T04:33:34;100885.91;;;5.13;100.00
35151;BME280;55720;51.972;4.624;2023-03-16T04:36:00;100884.56;;;5.10;100.00
35151;BME280;55720;51.972;4.624;2023-03-16T04:38:27;100882.16;;;5.09;100.00
35151;BME280;55720;51.972;4.624;2023-03-16T04:40:54;100871.34;;;5.04;100.00
35151;BME280;55720;51.972;4.624;2023-03-16T04:43:19;100859.66;;;5.03;100.00
35151;BME280;55720;51.972;4.624;2023-03-16T04:45:45;100843.41;;;4.98;100.00
35151;BME280;55720;51.972;4.624;2023-03-16T04:48:10;100844.81;;;4.95;100.00
35151;BME280;55720;51.972;4.624;2023-03-16T04:50:36;100816.59;;;4.91;100.00
35151;BME280;55720;51.972;4.624;2023-03-16T04:53:02;100802.75;;;4.88;100.00
35151;BME280;55720;51.972;4.624;2023-03-16T04:55:29;100790.31;;;4.82;100.00
35151;BME280;55720;51.972;4.624;2023-03-16T04:57:55;100781.34;;;4.81;100.00
35151;BME280;55720;51.972;4.624;2023-03-16T05:00:21;100762.53;;;4.85;100.00
35151;BME280;55720;51.972;4.624;2023-03-16T05:02:48;100740.03;;;4.79;100.00
35151;BME280;55720;51.972;4.624;2023-03-16T05:05:14;100728.66;;;4.77;100.00
35151;BME280;55720;51.972;4.624;2023-03-16T05:07:41;100708.00;;;4.76;100.00
35151;BME280;55720;51.972;4.624;2023-03-16T05:10:08;100703.97;;;4.74;100.00
35151;BME280;55720;51.972;4.624;2023-03-16T05:12:33;100663.97;;;4.74;100.00
35151;BME280;55720;51.972;4.624;2023-03-16T05:14:59;100648.78;;;4.73;100.00
35151;BME280;55720;51.972;4.624;2023-03-16T05:17:24;100639.19;;;4.76;100.00
35151;BME280;55720;51.972;4.624;2023-03-16T05:19:50;100618.53;;;4.75;100.00
35151;BME280;55720;51.972;4.624;2023-03-16T05:22:15;100613.22;;;4.70;100.00
35151;BME280;55720;51.972;4.624;2023-03-16T05:24:41;100600.19;;;4.67;100.00
35151;BME280;55720;51.972;4.624;2023-03-16T05:27:07;100573.59;;;4.64;100.00
35151;BME280;55720;51.972;4.624;2023-03-16T05:29:32;100563.31;;;4.61;100.00
35151;BME280;55720;51.972;4.624;2023-03-16T05:31:58;100550.81;;;4.60;100.00
35151;BME280;55720;51.972;4.624;2023-03-16T05:34:24;100544.59;;;4.59;100.00
35151;BME280;55720;51.972;4.624;2023-03-16T05:36:50;100528.84;;;4.56;100.00
35151;BME280;55720;51.972;4.624;2023-03-16T05:39:15;100521.50;;;4.57;100.00
35151;BME280;55720;51.972;4.624;2023-03-16T05:41:41;100518.78;;;4.57;100.00
35151;BME280;55720;51.972;4.624;2023-03-16T05:44:07;100520.41;;;4.58;100.00
35151;BME280;55720;51.972;4.624;2023-03-16T05:46:32;100520.41;;;4.58;100.00
35151;BME280;55720;51.972;4.624;2023-03-16T05:48:58;100510.63;;;4.57;100.00
35151;BME280;55720;51.972;4.624;2023-03-16T05:51:23;100504.38;;;4.56;100.00
35151;BME280;55720;51.972;4.624;2023-03-16T05:53:51;100507.72;;;4.53;100.00
35151;BME280;55720;51.972;4.624;2023-03-16T05:56:22;100508.84;;;4.52;100.00
35151;BME280;55720;51.972;4.624;2023-03-16T05:58:49;100494.44;;;4.52;100.00
35151;BME280;55720;51.972;4.624;2023-03-16T06:01:14;100496.03;;;4.53;100.00
35151;BME280;55720;51.972;4.624;2023-03-16T06:03:39;100490.91;;;4.51;100.00
35151;BME280;55720;51.972;4.624;2023-03-16T06:06:05;100487.59;;;4.54;100.00
35151;BME280;55720;51.972;4.624;2023-03-16T06:08:31;100493.84;;;4.55;100.00
35151;BME280;55720;51.972;4.624;2023-03-16T06:10:56;100483.25;;;4.53;100.00
35151;BME280;55720;51.972;4.624;2023-03-16T06:13:22;100481.34;;;4.54;100.00
35151;BME280;55720;51.972;4.624;2023-03-16T06:15:48;100488.06;;;4.56;100.00
35151;BME280;55720;51.972;4.624;2023-03-16T06:18:13;100486.78;;;4.54;100.00
35151;BME280;55720;51.972;4.624;2023-03-16T06:20:39;100485.97;;;4.53;100.00
35151;BME280;55720;51.972;4.624;2023-03-16T06:23:04;100483.78;;;4.55;100.00
35151;BME280;55720;51.972;4.624;2023-03-16T06:25:30;100483.78;;;4.55;100.00
35151;BME280;55720;51.972;4.624;2023-03-16T06:27:55;100477.53;;;4.55;100.00
35151;BME280;55720;51.972;4.624;2023-03-16T06:30:21;100485.97;;;4.53;100.00
35151;BME280;55720;51.972;4.624;2023-03-16T06:32:46;100481.34;;;4.54;100.00
35151;BME280;55720;51.972;4.624;2023-03-16T06:35:12;100472.09;;;4.55;100.00
35151;BME280;55720;51.972;4.624;2023-03-16T06:37:37;100478.00;;;4.57;100.00
35151;BME280;55720;51.972;4.624;2023-03-16T06:40:03;100479.34;;;4.59;100.00
35151;BME280;55720;51.972;4.624;2023-03-16T06:42:29;100465.63;;;4.64;100.00
35151;BME280;55720;51.972;4.624;2023-03-16T06:44:54;100461.81;;;4.65;100.00
35151;BME280;55720;51.972;4.624;2023-03-16T06:47:20;100467.44;;;4.69;100.00
35151;BME280;55720;51.972;4.624;2023-03-16T06:49:46;100463.63;;;4.70;100.00
35151;BME280;55720;51.972;4.624;2023-03-16T06:52:12;100465.41;;;4.74;100.00
35151;BME280;55720;51.972;4.624;2023-03-16T06:54:39;100466.75;;;4.77;100.00
35151;BME280;55720;51.972;4.624;2023-03-16T06:57:06;100474.91;;;4.77;100.00
35151;BME280;55720;51.972;4.624;2023-03-16T06:59:32;100478.13;;;4.79;100.00
35151;BME280;55720;51.972;4.624;2023-03-16T07:01:57;100478.13;;;4.79;100.00
35151;BME280;55720;51.972;4.624;2023-03-16T07:04:23;100472.69;;;4.79;100.00
35151;BME280;55720;51.972;4.624;2023-03-16T07:06:48;100478.94;;;4.79;100.00
35151;BME280;55720;51.972;4.624;2023-03-16T07:09:14;100479.13;;;4.83;100.00
35151;BME280;55720;51.972;4.624;2023-03-16T07:11:39;100473.41;;;4.84;100.00
35151;BME280;55720;51.972;4.624;2023-03-16T07:14:05;100476.31;;;4.88;100.00
35151;BME280;55720;51.972;4.624;2023-03-16T07:16:30;100478.09;;;4.92;100.00
35151;BME280;55720;51.972;4.624;2023-03-16T07:18:56;100482.97;;;4.95;100.00
35151;BME280;55720;51.972;4.624;2023-03-16T07:21:22;100487.47;;;5.00;100.00
35151;BME280;55720;51.972;4.624;2023-03-16T07:23:49;100483.03;;;5.04;100.00
35151;BME280;55720;51.972;4.624;2023-03-16T07:26:16;100484.16;;;5.17;100.00
35151;BME280;55720;51.972;4.624;2023-03-16T07:28:41;100489.66;;;5.25;100.00
35151;BME280;55720;51.972;4.624;2023-03-16T07:31:07;100497.91;;;5.34;100.00
35151;BME280;55720;51.972;4.624;2023-03-16T07:33:34;100495.06;;;5.39;100.00
35151;BME280;55720;51.972;4.624;2023-03-16T07:36:03;100510.59;;;5.52;100.00
35151;BME280;55720;51.972;4.624;2023-03-16T07:38:30;100517.59;;;5.67;100.00
35151;BME280;55720;51.972;4.624;2023-03-16T07:40:57;100531.41;;;5.70;100.00
35151;BME280;55720;51.972;4.624;2023-03-16T07:43:23;100533.53;;;5.73;100.00
35151;BME280;55720;51.972;4.624;2023-03-16T07:45:49;100548.94;;;5.78;100.00
35151;BME280;55720;51.972;4.624;2023-03-16T07:48:15;100551.53;;;5.83;100.00
35151;BME280;55720;51.972;4.624;2023-03-16T07:50:41;100566.59;;;5.80;100.00
35151;BME280;55720;51.972;4.624;2023-03-16T07:53:07;100572.03;;;5.80;100.00
35151;BME280;55720;51.972;4.624;2023-03-16T07:55:32;100587.09;;;5.78;100.00
35151;BME280;55720;51.972;4.624;2023-03-16T07:58:03;100600.72;;;5.78;100.00
35151;BME280;55720;51.972;4.624;2023-03-16T08:00:30;100608.25;;;5.81;100.00
35151;BME280;55720;51.972;4.624;2023-03-16T08:02:56;100611.91;;;5.90;100.00
35151;BME280;55720;51.972;4.624;2023-03-16T08:05:21;100645.97;;;6.01;100.00
35151;BME280;55720;51.972;4.624;2023-03-16T08:07:47;100665.44;;;6.08;100.00
35151;BME280;55720;51.972;4.624;2023-03-16T08:10:12;100704.13;;;6.10;100.00
35151;BME280;55720;51.972;4.624;2023-03-16T08:12:38;100719.75;;;6.18;100.00
35151;BME280;55720;51.972;4.624;2023-03-16T08:15:04;100725.00;;;6.28;100.00
35151;BME280;55720;51.972;4.624;2023-03-16T08:17:30;100746.66;;;6.33;100.00
35151;BME280;55720;51.972;4.624;2023-03-16T08:19:55;100770.53;;;6.28;100.00
35151;BME280;55720;51.972;4.624;2023-03-16T08:22:21;100769.09;;;6.30;100.00
35151;BME280;55720;51.972;4.624;2023-03-16T08:24:46;100797.28;;;6.39;100.00
35151;BME280;55720;51.972;4.624;2023-03-16T08:27:13;100831.09;;;6.38;100.00
35151;BME280;55720;51.972;4.624;2023-03-16T08:29:40;100868.59;;;6.33;100.00
35151;BME280;55720;51.972;4.624;2023-03-16T08:32:05;100888.56;;;6.42;100.00
35151;BME280;55720;51.972;4.624;2023-03-16T08:34:31;100897.56;;;6.42;100.00
35151;BME280;55720;51.972;4.624;2023-03-16T08:36:56;100907.16;;;6.54;100.00
35151;BME280;55720;51.972;4.624;2023-03-16T08:39:22;100931.03;;;6.62;100.00
35151;BME280;55720;51.972;4.624;2023-03-16T08:41:47;100948.91;;;6.68;100.00
35151;BME280;55720;51.972;4.624;2023-03-16T08:44:12;100956.88;;;6.78;100.00
35151;BME280;55720;51.972;4.624;2023-03-16T08:46:38;100974.31;;;7.18;100.00
35151;BME280;55720;51.972;4.624;2023-03-16T08:49:04;100991.66;;;7.35;100.00
35151;BME280;55720;51.972;4.624;2023-03-16T08:51:31;101033.56;;;7.45;100.00
35151;BME280;55720;51.972;4.624;2023-03-16T08:53:57;101043.53;;;7.85;100.00
35151;BME280;55720;51.972;4.624;2023-03-16T08:56:23;101065.13;;;8.09;100.00
35151;BME280;55720;51.972;4.624;2023-03-16T08:58:48;101095.22;;;7.73;100.00
35151;BME280;55720;51.972;4.624;2023-03-16T09:01:16;101115.13;;;7.87;100.00
35151;BME280;55720;51.972;4.624;2023-03-16T09:03:43;101133.75;;;7.85;100.00
35151;BME280;55720;51.972;4.624;2023-03-16T09:06:11;101148.00;;;8.09;100.00
35151;BME280;55720;51.972;4.624;2023-03-16T09:08:38;101165.78;;;8.34;100.00
35151;BME280;55720;51.972;4.624;2023-03-16T09:11:06;101177.75;;;8.24;100.00
35151;BME280;55720;51.972;4.624;2023-03-16T09:13:33;101168.91;;;8.27;100.00
35151;BME280;55720;51.972;4.624;2023-03-16T09:15:59;101163.44;;;8.63;100.00
35151;BME280;55720;51.972;4.624;2023-03-16T09:18:25;101176.56;;;8.75;100.00
35151;BME280;55720;51.972;4.624;2023-03-16T09:20:58;101185.47;;;9.11;100.00
35151;BME280;55720;51.972;4.624;2023-03-16T09:23:26;101191.41;;;9.35;100.00
35151;BME280;55720;51.972;4.624;2023-03-16T09:25:57;101214.03;;;9.19;100.00
35151;BME280;55720;51.972;4.624;2023-03-16T09:28:23;101207.03;;;9.74;100.00
35151;BME280;55720;51.972;4.624;2023-03-16T09:30:49;101231.59;;;9.49;100.00
35151;BME280;55720;51.972;4.624;2023-03-16T09:33:14;101250.03;;;9.26;100.00
35151;BME280;55720;51.972;4.624;2023-03-16T09:35:40;101236.97;;;9.62;100.00
35151;BME280;55720;51.972;4.624;2023-03-16T09:38:06;101222.53;;;9.87;100.00
35151;BME280;55720;51.972;4.624;2023-03-16T09:40:33;101234.59;;;10.17;100.00
35151;BME280;55720;51.972;4.624;2023-03-16T09:43:33;101234.78;;;10.29;100.00
35151;BME280;55720;51.972;4.624;2023-03-16T09:46:27;101225.94;;;10.67;100.00
35151;BME280;55720;51.972;4.624;2023-03-16T09:48:56;101229.31;;;10.55;100.00
35151;BME280;55720;51.972;4.624;2023-03-16T09:53:57;101234.47;;;10.65;100.00
35151;BME280;55720;51.972;4.624;2023-03-16T09:56:44;101253.38;;;10.58;100.00
35151;BME280;55720;51.972;4.624;2023-03-16T09:59:13;101265.16;;;10.67;100.00
35151;BME280;55720;51.972;4.624;2023-03-16T10:01:51;101262.44;;;10.84;100.00
35151;BME280;55720;51.972;4.624;2023-03-16T10:12:06;101291.16;;;11.39;100.00
35151;BME280;55720;51.972;4.624;2023-03-16T10:19:41;101312.84;;;11.31;100.00
35151;BME280;55720;51.972;4.624;2023-03-16T10:22:29;101311.72;;;10.98;100.00
35151;BME280;55720;51.972;4.624;2023-03-16T10:27:46;101333.38;;;11.08;100.00
35151;BME280;55720;51.972;4.624;2023-03-16T10:30:31;101333.53;;;11.20;100.00
35151;BME280;55720;51.972;4.624;2023-03-16T10:35:43;101328.78;;;11.55;100.00
35151;BME280;55720;51.972;4.624;2023-03-16T10:38:46;101341.59;;;11.34;100.00
35151;BME280;55720;51.972;4.624;2023-03-16T10:44:05;101332.38;;;11.39;100.00
35151;BME280;55720;51.972;4.624;2023-03-16T10:46:43;101328.47;;;11.57;100.00
35151;BME280;55720;51.972;4.624;2023-03-16T10:49:41;101335.56;;;11.66;100.00
35151;BME280;55720;51.972;4.624;2023-03-16T10:54:58;101318.75;;;11.59;100.00
35151;BME280;55720;51.972;4.624;2023-03-16T10:57:32;101318.91;;;11.54;100.00
35151;BME280;55720;51.972;4.624;2023-03-16T11:00:06;101321.19;;;11.61;100.00
35151;BME280;55720;51.972;4.624;2023-03-16T11:02:37;101307.09;;;11.71;100.00
35151;BME280;55720;51.972;4.624;2023-03-16T11:10:29;101321.38;;;11.39;100.00
35151;BME280;55720;51.972;4.624;2023-03-16T11:13:03;101317.63;;;11.60;100.00
35151;BME280;55720;51.972;4.624;2023-03-16T11:18:28;101320.41;;;11.34;100.00
35151;BME280;55720;51.972;4.624;2023-03-16T11:20:55;101312.84;;;11.23;100.00
35151;BME280;55720;51.972;4.624;2023-03-16T11:23:32;101305.72;;;11.30;100.00
35151;BME280;55720;51.972;4.624;2023-03-16T11:26:02;101314.88;;;11.60;100.00
35151;BME280;55720;51.972;4.624;2023-03-16T11:28:34;101311.66;;;11.50;100.00
35151;BME280;55720;51.972;4.624;2023-03-16T11:33:51;101303.69;;;11.65;100.00
35151;BME280;55720;51.972;4.624;2023-03-16T11:49:50;101297.81;;;13.13;100.00
35151;BME280;55720;51.972;4.624;2023-03-16T11:58:34;101293.94;;;13.14;100.00
35151;BME280;55720;51.972;4.624;2023-03-16T12:01:20;101290.47;;;13.17;100.00
35151;BME280;55720;51.972;4.624;2023-03-16T12:04:05;101276.00;;;13.20;100.00
35151;BME280;55720;51.972;4.624;2023-03-16T12:06:52;101273.41;;;13.93;100.00
35151;BME280;55720;51.972;4.624;2023-03-16T12:17:28;101263.38;;;13.64;100.00
35151;BME280;55720;51.972;4.624;2023-03-16T12:20:11;101259.66;;;13.36;100.00
35151;BME280;55720;51.972;4.624;2023-03-16T12:22:44;101246.00;;;13.52;100.00
35151;BME280;55720;51.972;4.624;2023-03-16T12:25:31;101238.13;;;13.74;100.00
35151;BME280;55720;51.972;4.624;2023-03-16T12:27:59;101235.31;;;14.11;100.00
35151;BME280;55720;51.972;4.624;2023-03-16T12:49:06;101165.94;;;14.24;100.00
35151;BME280;55720;51.972;4.624;2023-03-16T12:51:39;101165.84;;;14.61;100.00
35151;BME280;55720;51.972;4.624;2023-03-16T12:54:17;101180.88;;;14.23;100.00
35151;BME280;55720;51.972;4.624;2023-03-16T12:56:45;101179.25;;;14.47;100.00
35151;BME280;55720;51.972;4.624;2023-03-16T12:59:19;101167.09;;;14.23;100.00
35151;BME280;55720;51.972;4.624;2023-03-16T13:01:49;101175.59;;;14.18;100.00
35151;BME280;55720;51.972;4.624;2023-03-16T13:04:16;101166.19;;;14.07;100.00
35151;BME280;55720;51.972;4.624;2023-03-16T13:06:46;101168.72;;;14.64;100.00
35151;BME280;55720;51.972;4.624;2023-03-16T13:09:24;101150.22;;;14.53;100.00
35151;BME280;55720;51.972;4.624;2023-03-16T13:11:52;101144.75;;;14.68;100.00
35151;BME280;55720;51.972;4.624;2023-03-16T13:17:05;101129.19;;;15.70;100.00
35151;BME280;55720;51.972;4.624;2023-03-16T13:19:31;101116.19;;;15.39;100.00
35151;BME280;55720;51.972;4.624;2023-03-16T13:24:52;101109.81;;;15.70;100.00
35151;BME280;55720;51.972;4.624;2023-03-16T13:27:22;101116.44;;;15.03;100.00
35151;BME280;55720;51.972;4.624;2023-03-16T13:29:58;101113.75;;;15.06;100.00
35151;BME280;55720;51.972;4.624;2023-03-16T13:32:30;101112.06;;;14.86;100.00
35151;BME280;55720;51.972;4.624;2023-03-16T13:35:01;101109.00;;;14.48;100.00
35151;BME280;55720;51.972;4.624;2023-03-16T13:37:29;101104.03;;;14.97;100.00
35151;BME280;55720;51.972;4.624;2023-03-16T13:39:57;101095.31;;;15.10;100.00
35151;BME280;55720;51.972;4.624;2023-03-16T13:42:25;101089.41;;;14.96;100.00
35151;BME280;55720;51.972;4.624;2023-03-16T13:44:57;101097.00;;;15.15;100.00
35151;BME280;55720;51.972;4.624;2023-03-16T13:47:25;101092.78;;;15.05;100.00
35151;BME280;55720;51.972;4.624;2023-03-16T13:49:56;101100.03;;;15.25;100.00
35151;BME280;55720;51.972;4.624;2023-03-16T13:52:28;101089.59;;;15.03;100.00
35151;BME280;55720;51.972;4.624;2023-03-16T13:54:56;101091.19;;;15.36;100.00
35151;BME280;55720;51.972;4.624;2023-03-16T13:57:24;101093.78;;;15.44;100.00
35151;BME280;55720;51.972;4.624;2023-03-16T13:59:51;101090.03;;;15.52;100.00
35151;BME280;55720;51.972;4.624;2023-03-16T14:02:23;101082.47;;;15.34;100.00
35151;BME280;55720;51.972;4.624;2023-03-16T14:04:48;101080.84;;;15.33;100.00
35151;BME280;55720;51.972;4.624;2023-03-16T14:07:19;101069.50;;;15.38;100.00
35151;BME280;55720;51.972;4.624;2023-03-16T14:09:45;101065.38;;;15.63;100.00
35151;BME280;55720;51.972;4.624;2023-03-16T14:12:16;101067.53;;;15.38;100.00
35151;BME280;55720;51.972;4.624;2023-03-16T14:14:46;101056.78;;;14.86;98.12
35151;BME280;55720;51.972;4.624;2023-03-16T14:17:19;101054.34;;;14.85;96.95
35151;BME280;55720;51.972;4.624;2023-03-16T14:19:47;101062.91;;;15.26;99.59
35151;BME280;55720;51.972;4.624;2023-03-16T14:22:30;101060.34;;;14.87;95.90
35151;BME280;55720;51.972;4.624;2023-03-16T14:24:59;101056.41;;;15.03;97.03
35151;BME280;55720;51.972;4.624;2023-03-16T14:27:30;101047.38;;;14.91;96.56
35151;BME280;55720;51.972;4.624;2023-03-16T14:30:12;101041.78;;;14.71;97.35
35151;BME280;55720;51.972;4.624;2023-03-16T14:32:40;101044.38;;;14.96;98.61